Time;durP1;ratioP1;P1;durP2;ratioP2;P2;SDS_P1;SDS_P2;PMS_P1;PMS_P2;Temp;Humidity;BMP_temperature;BMP_pressure;BME280_temperature;BME280_humidity;BME280_pressure;Samples;Min_cycle;Max_cycle;Signal;HPM_P1;HPM_P2
2022/07/18 00:02:02;;;;;;;2.40;1.30;;;;;;;12.35;66.22;99346.77;106717;1277;22534;-80
2022/07/18 00:04:30;;;;;;;4.90;1.50;;;;;;;12.32;66.94;99346.27;106262;1277;137982;-80
2022/07/18 00:06:58;;;;;;;3.00;1.20;;;;;;;12.30;66.66;99352.39;106553;1276;22557;-80
2022/07/18 00:09:25;;;;;;;2.60;1.40;;;;;;;12.30;66.99;99351.39;106588;1277;138416;-80
2022/07/18 00:11:53;;;;;;;2.60;1.20;;;;;;;12.30;66.96;99350.46;107205;1275;22646;-80
2022/07/18 00:14:21;;;;;;;3.10;1.20;;;;;;;12.29;66.54;99343.63;106335;1277;137814;-80
2022/07/18 00:16:50;;;;;;;4.30;1.80;;;;;;;12.30;66.76;99347.18;106651;1277;22544;-79
2022/07/18 00:19:17;;;;;;;2.60;1.30;;;;;;;12.29;66.63;99348.92;106535;1277;25235;-80
2022/07/18 00:21:44;;;;;;;1.20;1.10;;;;;;;12.27;67.13;99344.58;106675;1276;137880;-80
2022/07/18 00:24:11;;;;;;;3.20;1.20;;;;;;;12.27;66.85;99345.75;106137;1277;25292;-80
2022/07/18 00:26:38;;;;;;;3.50;1.40;;;;;;;12.27;66.93;99346.56;106193;1277;138184;-80
2022/07/18 00:29:06;;;;;;;3.40;1.70;;;;;;;12.28;66.69;99348.72;106164;1277;23130;-80
2022/07/18 00:31:47;;;;;;;2.50;1.10;;;;;;;12.28;66.87;99346.88;106413;1277;24510;-80
2022/07/18 00:34:14;;;;;;;2.50;1.50;;;;;;;12.27;67.06;99348.16;106291;1277;137987;-80
2022/07/18 00:36:43;;;;;;;4.70;1.20;;;;;;;12.25;67.23;99353.30;106517;1277;22556;-80
2022/07/18 00:39:25;;;;;;;2.70;1.50;;;;;;;12.19;67.21;99352.27;106484;1277;138158;-80
2022/07/18 00:42:06;;;;;;;2.20;1.20;;;;;;;12.12;67.40;99354.22;106333;1277;22623;-79
2022/07/18 00:44:33;;;;;;;3.70;1.50;;;;;;;12.02;67.41;99353.04;106515;1280;137805;-80
2022/07/18 00:47:03;;;;;;;4.70;1.60;;;;;;;11.89;67.70;99346.60;106251;1280;22554;-80
2022/07/18 00:49:30;;;;;;;1.70;1.00;;;;;;;11.81;68.35;99347.61;106055;1277;23909;-80
2022/07/18 00:51:58;;;;;;;3.90;1.30;;;;;;;11.79;68.18;99350.29;106348;1277;138027;-80
2022/07/18 00:54:28;;;;;;;2.70;1.60;;;;;;;11.75;68.67;99357.02;106850;1277;24287;-80
2022/07/18 00:56:59;;;;;;;2.70;1.30;;;;;;;11.73;68.51;99357.94;106387;1277;137896;-80
2022/07/18 01:01:42;;;;;;;3.50;1.80;;;;;;;11.72;68.98;99360.70;106552;1277;22535;-80
2022/07/18 01:02:16;;;;;;;2.10;1.50;;;;;;;11.70;68.91;99356.44;106547;1277;137700;-80
2022/07/18 01:04:44;;;;;;;4.50;1.60;;;;;;;11.69;69.11;99351.81;106633;1277;22570;-80
2022/07/18 01:07:11;;;;;;;3.40;1.40;;;;;;;11.65;69.36;99347.25;106562;1277;22556;-80
2022/07/18 01:09:39;;;;;;;5.50;1.50;;;;;;;11.62;69.45;99342.63;106609;1277;138357;-79
2022/07/18 01:12:08;;;;;;;5.70;1.50;;;;;;;11.62;68.94;99341.63;106859;1277;25321;-79
2022/07/18 01:14:37;;;;;;;6.70;1.80;;;;;;;11.62;69.03;99333.61;106510;1277;137797;-79
2022/07/18 01:17:13;;;;;;;3.30;1.30;;;;;;;11.64;68.76;99329.63;106530;1276;22532;-80
2022/07/18 01:19:42;;;;;;;2.90;1.40;;;;;;;11.66;69.03;99333.30;106722;1277;22603;-79
2022/07/18 01:22:23;;;;;;;2.70;1.80;;;;;;;11.69;68.83;99330.74;106742;1276;137492;-79
2022/07/18 01:24:50;;;;;;;3.40;1.70;;;;;;;11.70;68.82;99335.04;106856;1277;22574;-80
2022/07/18 01:27:21;;;;;;;3.50;1.60;;;;;;;11.69;68.65;99333.12;106390;1277;137632;-79
2022/07/18 01:29:53;;;;;;;3.10;1.40;;;;;;;11.70;68.68;99330.40;107096;1276;25317;-79
2022/07/18 01:32:25;;;;;;;2.30;1.40;;;;;;;11.71;68.73;99330.12;106375;1277;138393;-79
2022/07/18 01:34:52;;;;;;;3.80;1.30;;;;;;;11.71;68.96;99328.02;106432;1277;23965;-79
2022/07/18 01:37:22;;;;;;;4.80;1.90;;;;;;;11.72;68.82;99325.50;106326;1277;23454;-79
2022/07/18 01:39:49;;;;;;;5.80;1.90;;;;;;;11.73;68.74;99324.21;106341;1277;137697;-79
2022/07/18 01:42:18;;;;;;;5.10;1.80;;;;;;;11.73;68.61;99323.63;106475;1278;25258;-79
2022/07/18 01:44:46;;;;;;;3.90;1.90;;;;;;;11.72;68.78;99320.65;106441;1278;137901;-80
2022/07/18 01:47:13;;;;;;;3.90;2.10;;;;;;;11.70;68.87;99323.32;106596;1277;24289;-79
2022/07/18 01:49:40;;;;;;;4.20;2.20;;;;;;;11.69;69.11;99321.00;106473;1280;24262;-82
2022/07/18 01:52:10;;;;;;;7.10;2.10;;;;;;;11.68;69.24;99323.03;106485;1280;138569;-79
2022/07/18 01:54:38;;;;;;;4.30;1.80;;;;;;;11.68;69.24;99324.20;106434;1277;30261;-79
2022/07/18 01:57:06;;;;;;;7.80;2.10;;;;;;;11.68;69.23;99323.59;106379;1280;137673;-79
2022/07/18 01:59:34;;;;;;;4.90;2.20;;;;;;;11.65;69.29;99320.93;106446;1277;24085;-82
2022/07/18 02:02:03;;;;;;;4.20;1.70;;;;;;;11.59;68.92;99319.70;106523;1277;22538;-79
2022/07/18 02:07:14;;;;;;;4.30;1.90;;;;;;;11.52;69.01;99320.30;106320;1278;24302;-79
2022/07/18 02:09:41;;;;;;;6.50;1.90;;;;;;;11.48;68.96;99321.08;106170;1280;138059;-79
2022/07/18 02:12:08;;;;;;;4.00;1.60;;;;;;;11.47;69.22;99317.59;106190;1277;22572;-79
2022/07/18 02:14:35;;;;;;;3.90;1.80;;;;;;;11.49;69.33;99315.15;106021;1277;138045;-82
2022/07/18 02:17:05;;;;;;;4.80;1.70;;;;;;;11.51;69.49;99311.11;106212;1277;23349;-79
2022/07/18 02:19:32;;;;;;;7.00;2.20;;;;;;;11.52;69.46;99309.68;106173;1278;22559;-79
2022/07/18 02:22:00;;;;;;;5.10;1.60;;;;;;;11.54;69.18;99310.58;106249;1277;137922;-81
2022/07/18 02:24:30;;;;;;;6.60;2.30;;;;;;;11.52;69.18;99312.66;106117;1280;22560;-79
2022/07/18 02:26:57;;;;;;;4.50;1.90;;;;;;;11.49;69.58;99313.73;106297;1278;137517;-79
2022/07/18 02:29:24;;;;;;;4.00;1.80;;;;;;;11.46;69.48;99316.05;106417;1280;22544;-79
2022/07/18 02:31:51;;;;;;;4.40;1.90;;;;;;;11.44;69.63;99320.52;106490;1277;22540;-79
2022/07/18 02:34:18;;;;;;;4.60;2.10;;;;;;;11.44;69.59;99319.98;106692;1277;137985;-79
2022/07/18 02:36:49;;;;;;;4.40;2.00;;;;;;;11.45;70.00;99321.89;106717;1277;22537;-79
2022/07/18 02:39:20;;;;;;;4.30;2.50;;;;;;;11.44;70.00;99318.17;106711;1277;137619;-79
2022/07/18 02:41:47;;;;;;;2.70;1.50;;;;;;;11.46;70.37;99321.06;107462;1277;22700;-79
2022/07/18 02:44:14;;;;;;;3.10;2.00;;;;;;;11.47;70.09;99322.55;106615;1276;137802;-79
2022/07/18 02:46:42;;;;;;;4.20;2.40;;;;;;;11.45;70.09;99322.23;106301;1277;22664;-79
2022/07/18 02:49:26;;;;;;;4.10;2.20;;;;;;;11.37;70.19;99320.33;106223;1277;25265;-81
2022/07/18 02:52:08;;;;;;;5.60;1.90;;;;;;;11.32;70.08;99316.90;106459;1277;138397;-79
2022/07/18 02:54:37;;;;;;;8.90;2.00;;;;;;;11.31;70.05;99317.08;106740;1277;22709;-79
2022/07/18 02:57:05;;;;;;;;;;;;;;;11.33;70.78;99317.35;106493;1277;138028;-79
2022/07/18 02:59:32;;;;;;;4.40;1.80;;;;;;;11.33;71.03;99317.98;106227;1277;24303;-81
2022/07/18 03:02:00;;;;;;;3.30;1.90;;;;;;;11.34;70.50;99318.27;106571;1276;24433;-80
2022/07/18 03:04:41;;;;;;;3.30;2.10;;;;;;;11.33;70.72;99324.95;106693;1277;22550;-79
2022/07/18 03:07:08;;;;;;;3.90;2.20;;;;;;;11.30;70.38;99328.25;106082;1277;24225;-80
2022/07/18 03:09:35;;;;;;;2.80;2.20;;;;;;;11.22;70.28;99331.45;106133;1277;137566;-80
2022/07/18 03:12:02;;;;;;;4.00;1.50;;;;;;;11.05;70.39;99329.85;106169;1277;22538;-80
2022/07/18 03:14:32;;;;;;;3.50;1.50;;;;;;;10.88;70.75;99327.34;105902;1277;138467;-79
2022/07/18 03:17:00;;;;;;;3.90;1.80;;;;;;;10.85;71.52;99326.84;106477;1277;22610;-79
2022/07/18 03:19:26;;;;;;;3.30;1.70;;;;;;;10.86;71.95;99329.16;106297;1277;22563;-80
2022/07/18 03:21:53;;;;;;;5.10;2.00;;;;;;;10.90;72.07;99331.98;106348;1277;137642;-80
2022/07/18 03:24:23;;;;;;;5.60;1.80;;;;;;;10.93;71.77;99334.02;106546;1277;25294;-80
2022/07/18 03:26:51;;;;;;;3.00;1.70;;;;;;;10.94;71.63;99335.79;106325;1278;137832;-79
2022/07/18 03:29:18;;;;;;;4.80;1.80;;;;;;;10.97;71.62;99338.10;106201;1277;24294;-80
2022/07/18 03:31:47;;;;;;;5.20;1.80;;;;;;;11.02;71.50;99337.55;106546;1277;25385;-80
2022/07/18 03:34:22;;;;;;;3.90;1.90;;;;;;;11.07;71.66;99335.31;106019;1277;137852;-80
2022/07/18 03:37:06;;;;;;;6.20;2.10;;;;;;;11.12;72.02;99344.36;106333;1276;30708;-80
2022/07/18 03:39:33;;;;;;;3.50;1.90;;;;;;;11.14;71.59;99345.89;106850;1277;137631;-80
2022/07/18 03:42:00;;;;;;;5.90;2.40;;;;;;;11.15;71.52;99346.92;106325;1277;22759;-80
2022/07/18 03:44:40;;;;;;;8.60;2.30;;;;;;;11.15;71.43;99345.52;106118;1277;137819;-80
2022/07/18 03:47:09;;;;;;;4.20;2.10;;;;;;;11.17;71.68;99344.73;106497;1277;30488;-80
2022/07/18 03:49:37;;;;;;;4.90;2.10;;;;;;;11.19;71.65;99342.02;106212;1278;22573;-80
2022/07/18 03:52:05;;;;;;;8.80;2.40;;;;;;;11.25;71.34;99349.21;107152;1277;138540;-79
2022/07/18 03:54:36;;;;;;;6.00;2.40;;;;;;;11.30;71.78;99348.27;106563;1277;22571;-79
2022/07/18 03:57:03;;;;;;;;;;;;;;;11.35;71.58;99350.98;106502;1277;137652;-79
2022/07/18 03:59:44;;;;;;;5.50;2.70;;;;;;;11.38;71.20;99357.28;106504;1277;22548;-79
2022/07/18 04:02:11;;;;;;;4.70;2.60;;;;;;;11.42;71.64;99361.80;106751;1277;24345;-79
2022/07/18 04:04:38;;;;;;;7.80;3.00;;;;;;;11.47;71.95;99363.92;106432;1277;22553;-78
2022/07/18 04:07:19;;;;;;;5.80;2.70;;;;;;;11.54;71.71;99362.54;106560;1276;22629;-79
2022/07/18 04:09:46;;;;;;;8.40;2.70;;;;;;;11.62;71.23;99364.33;106164;1277;138004;-79
2022/07/18 04:12:16;;;;;;;5.20;2.80;;;;;;;11.68;71.45;99364.66;106334;1276;22542;-78
2022/07/18 04:14:45;;;;;;;6.50;3.10;;;;;;;11.73;71.45;99364.48;106333;1277;138045;-79
2022/07/18 04:17:26;;;;;;;5.20;3.30;;;;;;;11.77;71.28;99368.05;106434;1277;24269;-79
2022/07/18 04:20:08;;;;;;;6.20;3.30;;;;;;;11.81;71.53;99366.94;106663;1275;23045;-79
2022/07/18 04:22:48;;;;;;;7.90;3.30;;;;;;;11.83;71.49;99363.37;106433;1277;137639;-79
2022/07/18 04:25:17;;;;;;;10.10;3.30;;;;;;;11.83;71.78;99366.28;106534;1277;23943;-79
2022/07/18 04:28:00;;;;;;;5.50;2.90;;;;;;;11.87;72.08;99367.10;106485;1277;138563;-79
2022/07/18 04:30:28;;;;;;;7.10;3.40;;;;;;;11.93;71.99;99363.86;106681;1277;25246;-79
2022/07/18 04:32:55;;;;;;;9.00;3.10;;;;;;;12.00;72.10;99362.63;106550;1280;137671;-78
2022/07/18 04:35:28;;;;;;;7.60;3.50;;;;;;;12.08;72.05;99369.77;106350;1280;24227;-79
2022/07/18 04:37:54;;;;;;;;;;;;;;;12.13;72.59;99373.14;106479;1277;22523;-79
2022/07/18 04:40:22;;;;;;;7.30;3.50;;;;;;;12.20;72.57;99377.30;106399;1276;124087;-79
2022/07/18 04:42:51;;;;;;;6.80;3.50;;;;;;;12.27;72.75;99373.98;106502;1277;24460;-79
2022/07/18 04:45:21;;;;;;;8.50;3.70;;;;;;;12.33;72.50;99375.50;106307;1277;138455;-79
2022/07/18 04:47:49;;;;;;;6.20;3.60;;;;;;;12.41;72.91;99373.86;106472;1277;22578;-80
2022/07/18 04:50:31;;;;;;;11.60;4.20;;;;;;;12.49;73.00;99372.69;106290;1277;138625;-82
2022/07/18 04:53:00;;;;;;;8.90;3.70;;;;;;;12.57;73.09;99373.70;106509;1277;22575;-79
2022/07/18 04:55:32;;;;;;;11.00;4.30;;;;;;;12.66;72.82;99371.27;106718;1277;22555;-78
2022/07/18 04:57:58;;;;;;;12.30;4.30;;;;;;;12.76;72.88;99372.69;106908;1277;137990;-79
2022/07/18 05:00:39;;;;;;;11.50;4.30;;;;;;;12.85;72.75;99370.72;106625;1277;22699;-79
2022/07/18 05:03:06;;;;;;;7.40;3.80;;;;;;;12.95;72.61;99369.41;106602;1277;138837;-79
2022/07/18 05:05:34;;;;;;;9.60;4.20;;;;;;;13.07;72.66;99365.70;106733;1276;22698;-79
2022/07/18 05:08:00;;;;;;;10.20;4.20;;;;;;;13.19;72.52;99363.66;106563;1277;22551;-79
2022/07/18 05:10:27;;;;;;;11.40;4.00;;;;;;;13.31;72.33;99366.45;106601;1277;137570;-79
2022/07/18 05:12:55;;;;;;;15.00;5.20;;;;;;;13.39;72.56;99364.07;106512;1277;22543;-79
2022/07/18 05:15:24;;;;;;;10.10;4.80;;;;;;;13.46;72.13;99361.15;106517;1277;137794;-80
2022/07/18 05:18:04;;;;;;;12.60;4.90;;;;;;;13.52;72.15;99358.16;106631;1277;23951;-79
2022/07/18 05:20:46;;;;;;;9.70;4.10;;;;;;;13.60;72.14;99364.67;106412;1277;138515;-79
2022/07/18 05:23:16;;;;;;;11.40;5.00;;;;;;;13.69;71.97;99358.27;106477;1277;22535;-78
2022/07/18 05:25:43;;;;;;;14.80;4.30;;;;;;;13.77;71.72;99353.13;106395;1277;25184;-80
2022/07/18 05:28:10;;;;;;;11.30;4.50;;;;;;;13.84;71.82;99353.10;106714;1277;137836;-80
2022/07/18 05:30:37;;;;;;;16.60;4.50;;;;;;;13.92;71.47;99355.88;106771;1277;22544;-80
2022/07/18 05:33:05;;;;;;;9.00;4.70;;;;;;;13.98;71.38;99349.42;106500;1276;138424;-80
2022/07/18 05:35:46;;;;;;;12.20;4.60;;;;;;;14.04;70.90;99352.54;106715;1277;22574;-80
2022/07/18 05:38:13;;;;;;;16.10;4.70;;;;;;;14.09;70.74;99351.02;106837;1276;139388;-80
2022/07/18 05:40:40;;;;;;;15.10;4.70;;;;;;;14.15;70.92;99348.20;106498;1277;22853;-80
2022/07/18 05:43:07;;;;;;;12.50;4.90;;;;;;;14.22;70.54;99349.46;106546;1277;22622;-80
2022/07/18 05:45:48;;;;;;;13.40;4.80;;;;;;;14.32;70.48;99347.66;106647;1277;137988;-80
2022/07/18 05:48:15;;;;;;;10.50;4.00;;;;;;;14.42;70.34;99348.82;106329;1277;22980;-79
2022/07/18 05:50:42;;;;;;;12.60;4.00;;;;;;;14.49;70.19;99349.05;106553;1277;138135;-78
2022/07/18 05:53:23;;;;;;;9.10;4.40;;;;;;;14.56;69.67;99346.21;106522;1277;22574;-80
2022/07/18 05:56:04;;;;;;;13.90;3.80;;;;;;;14.66;69.61;99342.83;106553;1277;22676;-80
2022/07/18 05:58:32;;;;;;;13.20;3.50;;;;;;;14.77;69.47;99340.04;106577;1277;138599;-80
2022/07/18 06:00:59;;;;;;;12.70;3.60;;;;;;;14.89;69.17;99337.64;106377;1278;25411;-79
2022/07/18 06:03:26;;;;;;;13.20;3.80;;;;;;;15.00;68.81;99337.91;106606;1277;137780;-81
2022/07/18 06:05:53;;;;;;;10.20;3.50;;;;;;;15.10;68.56;99338.33;106562;1277;25241;-82
2022/07/18 06:08:34;;;;;;;9.00;3.60;;;;;;;15.21;67.93;99341.27;106358;1278;137830;-80
2022/07/18 06:11:03;;;;;;;11.80;3.30;;;;;;;15.30;67.39;99331.86;106510;1277;23282;-81
2022/07/18 06:13:30;;;;;;;10.90;3.20;;;;;;;15.38;67.07;99336.77;106771;1277;25302;-79
2022/07/18 06:16:12;;;;;;;12.60;3.10;;;;;;;15.47;66.28;99338.38;106402;1276;138127;-80
2022/07/18 06:18:38;;;;;;;9.00;3.60;;;;;;;15.51;65.15;99337.81;106504;1277;22554;-79
2022/07/18 06:21:19;;;;;;;22.00;4.20;;;;;;;15.52;64.74;99340.09;106714;1277;137633;-79
2022/07/18 06:23:46;;;;;;;14.40;3.90;;;;;;;15.54;64.52;99340.82;106802;1277;22540;-79
2022/07/18 06:26:14;;;;;;;14.00;4.10;;;;;;;15.58;64.71;99341.69;106486;1277;138784;-79
2022/07/18 06:28:41;;;;;;;14.80;4.30;;;;;;;15.63;65.07;99340.49;107179;1276;22533;-80
2022/07/18 06:31:08;;;;;;;16.70;4.30;;;;;;;15.72;65.64;99342.36;106675;1277;22569;-80
2022/07/18 06:33:35;;;;;;;8.80;4.40;;;;;;;15.81;65.71;99341.87;107137;1277;22542;-82
2022/07/18 06:36:02;;;;;;;11.60;4.10;;;;;;;15.89;65.54;99341.45;106596;1277;25304;-80
2022/07/18 06:38:43;;;;;;;12.70;3.70;;;;;;;16.00;65.18;99338.45;106347;1277;138676;-79
2022/07/18 06:41:10;;;;;;;14.80;4.30;;;;;;;16.13;64.56;99334.95;106643;1277;25314;-79
2022/07/18 06:43:38;;;;;;;14.30;4.30;;;;;;;16.27;64.42;99336.23;106529;1277;25251;-81
2022/07/18 06:46:05;;;;;;;12.60;4.60;;;;;;;16.40;64.08;99335.05;106438;1277;137956;-81
2022/07/18 06:48:46;;;;;;;28.90;7.00;;;;;;;16.55;63.23;99334.89;106702;1277;25338;-82
2022/07/18 06:51:27;;;;;;;26.70;7.80;;;;;;;16.70;59.01;99328.56;106381;1277;138185;-80
2022/07/18 06:53:54;;;;;;;18.70;5.10;;;;;;;16.81;57.90;99326.45;106427;1277;24077;-82
2022/07/18 06:56:21;;;;;;;20.00;4.90;;;;;;;16.93;57.25;99322.48;106266;1277;137808;-84
2022/07/18 06:58:49;;;;;;;14.60;4.10;;;;;;;17.02;56.06;99324.56;106528;1277;26652;-80
2022/07/18 07:01:18;;;;;;;13.00;3.60;;;;;;;17.12;57.02;99321.33;107106;1277;22674;-82
2022/07/18 07:03:47;;;;;;;20.30;4.40;;;;;;;17.26;57.57;99318.86;106943;1277;137762;-82
2022/07/18 07:06:15;;;;;;;15.60;4.00;;;;;;;17.42;57.76;99321.31;106995;1277;22624;-82
2022/07/18 07:08:45;;;;;;;12.80;3.10;;;;;;;17.57;57.46;99320.98;106868;1277;138050;-82
2022/07/18 07:11:14;;;;;;;9.20;3.30;;;;;;;17.72;57.10;99323.23;107397;1277;30189;-83
2022/07/18 07:13:42;;;;;;;11.90;3.20;;;;;;;17.82;56.92;99319.08;107119;1277;25637;-82
2022/07/18 07:16:15;;;;;;;12.00;3.60;;;;;;;17.91;57.54;99320.45;106250;1277;137959;-81
2022/07/18 07:18:45;;;;;;;16.40;3.10;;;;;;;18.00;57.91;99322.94;106314;1278;24223;-84
2022/07/18 07:21:26;;;;;;;18.10;3.80;;;;;;;18.11;57.27;99324.29;106349;1278;138501;-83
2022/07/18 07:23:54;;;;;;;10.90;2.90;;;;;;;18.23;55.46;99322.87;106517;1277;25337;-82
2022/07/18 07:26:46;;;;;;;7.50;2.30;;;;;;;18.30;55.56;99322.48;106223;1277;138562;-85
2022/07/18 07:29:28;;;;;;;6.30;2.40;;;;;;;18.42;54.83;99321.89;106576;1277;25459;-82
2022/07/18 07:31:57;;;;;;;5.90;2.40;;;;;;;18.51;54.80;99321.02;106437;1278;25552;-83
2022/07/18 07:34:24;;;;;;;7.40;2.20;;;;;;;18.60;54.21;99320.52;105941;1281;137795;-84
2022/07/18 07:36:51;;;;;;;4.60;2.00;;;;;;;18.70;53.84;99324.48;106201;1277;25371;-85
2022/07/18 07:39:18;;;;;;;5.00;2.20;;;;;;;18.81;52.80;99320.71;106099;1280;137614;-83
2022/07/18 07:41:46;;;;;;;9.70;2.50;;;;;;;18.92;52.37;99322.48;106639;1277;22624;-82
2022/07/18 07:44:13;;;;;;;14.70;2.90;;;;;;;19.04;52.99;99327.05;105993;1278;340689;-84
2022/07/18 07:46:40;;;;;;;8.40;2.10;;;;;;;19.18;51.66;99328.78;106275;1277;22701;-84
2022/07/18 07:49:07;;;;;;;5.70;1.90;;;;;;;19.30;50.92;99329.45;106172;1277;23251;-82
2022/07/18 07:51:48;;;;;;;4.70;1.50;;;;;;;19.43;49.32;99327.15;106151;1278;137775;-85
2022/07/18 07:54:15;;;;;;;4.10;1.60;;;;;;;19.56;49.14;99326.33;106448;1277;22538;-84
2022/07/18 07:56:56;;;;;;;3.40;1.30;;;;;;;19.72;48.66;99324.88;106227;1278;137833;-82
2022/07/18 07:59:23;;;;;;;3.00;1.30;;;;;;;19.86;47.81;99324.70;106200;1277;22561;-86
2022/07/18 08:01:51;;;;;;;5.60;1.80;;;;;;;20.00;47.02;99321.92;106291;1278;22540;-85
2022/07/18 08:04:33;;;;;;;5.10;1.60;;;;;;;20.15;46.90;99323.31;106399;1280;138823;-84
2022/07/18 08:07:00;;;;;;;6.50;2.10;;;;;;;20.28;46.38;99314.46;106164;1278;25400;-85
2022/07/18 08:09:51;;;;;;;4.00;1.40;;;;;;;20.42;45.78;99309.67;106096;1281;138311;-84
2022/07/18 08:12:33;;;;;;;3.70;1.20;;;;;;;20.58;45.25;99307.37;106020;1278;31415;-86
2022/07/18 08:15:01;;;;;;;4.70;1.80;;;;;;;20.70;45.00;99303.59;106194;1277;137601;-83
2022/07/18 08:17:28;;;;;;;4.30;1.50;;;;;;;20.83;44.52;99301.85;106306;1277;22611;-83
2022/07/18 08:19:56;;;;;;;5.90;1.80;;;;;;;20.94;43.50;99298.09;106293;1278;22597;-82
2022/07/18 08:22:23;;;;;;;5.50;1.70;;;;;;;21.02;43.20;99300.83;106631;1277;137710;-81
2022/07/18 08:24:52;;;;;;;5.10;1.40;;;;;;;21.13;43.31;99299.39;106311;1277;22563;-83
2022/07/18 08:27:24;;;;;;;4.30;1.40;;;;;;;21.21;42.51;99294.09;106455;1277;137702;-82
2022/07/18 08:29:51;;;;;;;2.40;1.40;;;;;;;21.31;42.99;99295.05;106550;1278;22678;-81
2022/07/18 08:32:18;;;;;;;4.10;1.30;;;;;;;21.45;43.05;99296.23;106495;1277;137795;-83
2022/07/18 08:34:59;;;;;;;6.00;1.60;;;;;;;21.60;42.37;99294.19;106320;1278;22566;-82
2022/07/18 08:37:26;;;;;;;4.30;1.40;;;;;;;21.71;42.29;99295.36;106264;1277;24282;-81
2022/07/18 08:39:53;;;;;;;3.00;1.20;;;;;;;21.79;42.35;99292.92;106622;1277;137577;-81
2022/07/18 08:42:25;;;;;;;3.60;1.30;;;;;;;21.89;43.05;99292.39;106165;1277;27659;-82
2022/07/18 08:44:56;;;;;;;5.20;1.30;;;;;;;22.02;41.66;99286.66;106140;1277;138102;-80
2022/07/18 08:47:26;;;;;;;3.90;1.20;;;;;;;22.12;41.36;99286.90;106791;1277;22625;-80
2022/07/18 08:49:53;;;;;;;3.80;1.40;;;;;;;22.24;41.44;99288.38;106475;1277;22538;-81
2022/07/18 08:52:21;;;;;;;5.30;1.60;;;;;;;22.37;40.88;99286.35;106246;1277;137623;-81
2022/07/18 08:54:49;;;;;;;6.00;1.40;;;;;;;22.54;40.82;99288.34;106564;1278;24347;-81
2022/07/18 08:57:18;;;;;;;5.40;1.30;;;;;;;22.63;39.75;99285.04;106154;1277;137931;-81
2022/07/18 08:59:46;;;;;;;4.50;1.40;;;;;;;22.72;39.90;99280.09;106301;1277;25254;-83
2022/07/18 09:02:13;;;;;;;5.40;1.20;;;;;;;22.82;39.56;99280.02;106373;1277;137786;-81
2022/07/18 09:04:42;;;;;;;4.40;1.70;;;;;;;22.90;40.50;99279.09;106297;1277;22560;-81
2022/07/18 09:07:23;;;;;;;3.70;1.30;;;;;;;23.00;39.61;99277.39;106120;1277;22544;-82
2022/07/18 09:09:57;;;;;;;2.90;1.20;;;;;;;23.02;38.62;99277.31;106154;1278;137752;-80
2022/07/18 09:12:26;;;;;;;6.00;1.50;;;;;;;23.04;38.81;99280.45;106362;1277;24351;-81
2022/07/18 09:14:54;;;;;;;4.80;1.30;;;;;;;23.13;38.84;99280.79;106166;1277;137763;-81
2022/07/18 09:17:30;;;;;;;3.00;1.10;;;;;;;23.25;38.49;99277.56;106284;1277;22538;-80
2022/07/18 09:20:08;;;;;;;4.40;1.80;;;;;;;23.35;38.29;99277.73;106106;1278;22587;-80
2022/07/18 09:22:54;;;;;;;3.10;1.20;;;;;;;23.45;38.36;99281.20;106448;1277;25376;-80
2022/07/18 09:25:24;;;;;;;7.60;1.30;;;;;;;23.51;38.24;99281.52;106464;1277;22566;-81
2022/07/18 09:28:09;;;;;;;3.80;2.10;;;;;;;23.61;37.87;99285.90;106225;1277;137665;-82
2022/07/18 09:30:36;;;;;;;5.30;1.30;;;;;;;23.70;38.26;99288.38;106573;1278;25315;-84
2022/07/18 09:33:03;;;;;;;5.20;1.50;;;;;;;23.83;37.90;99287.90;106481;1277;137618;-86
2022/07/18 09:35:45;;;;;;;3.80;1.10;;;;;;;23.96;37.26;99286.02;106516;1277;22701;-86
2022/07/18 09:38:29;;;;;;;5.10;1.60;;;;;;;24.05;38.14;99288.91;106239;1277;137916;-88
2022/07/18 09:40:57;;;;;;;2.00;1.00;;;;;;;24.16;37.29;99288.20;105905;1278;26586;-84
2022/07/18 09:43:27;;;;;;;3.40;1.30;;;;;;;24.17;37.05;99287.89;106587;1278;24333;-87
2022/07/18 09:45:56;;;;;;;2.90;1.10;;;;;;;24.14;36.64;99288.35;106304;1278;137723;-88
2022/07/18 09:48:25;;;;;;;2.90;1.20;;;;;;;24.14;36.75;99284.36;106164;1277;22560;-82
2022/07/18 09:50:56;;;;;;;3.80;1.40;;;;;;;24.22;37.16;99283.77;106351;1277;137819;-82
2022/07/18 09:53:26;;;;;;;5.00;1.60;;;;;;;24.31;37.72;99285.80;106442;1277;24249;-82
2022/07/18 09:55:56;;;;;;;5.20;1.50;;;;;;;24.47;38.24;99284.05;106403;1277;22711;-86
2022/07/18 09:58:30;;;;;;;2.90;1.30;;;;;;;24.66;36.70;99274.06;106343;1277;137489;-89
2022/07/18 10:01:01;;;;;;;4.80;1.30;;;;;;;24.80;35.94;99275.13;106435;1277;25421;-85
2022/07/18 10:03:29;;;;;;;4.10;1.40;;;;;;;24.92;35.82;99270.15;106243;1277;137696;-85
2022/07/18 10:05:58;;;;;;;4.60;1.40;;;;;;;25.03;34.97;99267.27;106528;1277;25538;-87
2022/07/18 10:08:28;;;;;;;2.70;1.30;;;;;;;25.12;35.37;99262.89;106265;1277;137768;-87
2022/07/18 10:10:59;;;;;;;3.90;1.50;;;;;;;25.20;35.26;99262.45;106802;1277;22681;-89
2022/07/18 10:13:28;;;;;;;5.10;1.50;;;;;;;25.21;34.54;99259.80;106314;1277;22569;-83
2022/07/18 10:15:56;;;;;;;4.00;1.40;;;;;;;25.28;35.19;99260.73;106237;1277;137619;-89
2022/07/18 10:18:26;;;;;;;7.40;1.40;;;;;;;25.41;34.85;99264.77;106014;1277;23963;-86
2022/07/18 10:21:02;;;;;;;3.00;1.40;;;;;;;25.50;34.77;99264.17;106360;1278;137982;-88
2022/07/18 10:23:37;;;;;;;5.20;1.30;;;;;;;25.53;34.64;99264.09;106713;1277;23243;-90
2022/07/18 10:26:24;;;;;;;3.10;1.40;;;;;;;25.42;35.22;99263.30;106159;1277;137860;-87
2022/07/18 10:29:07;;;;;;;;;;;;;;;25.25;34.83;99260.61;106780;1277;24195;-91
2022/07/18 10:31:42;;;;;;;4.30;1.70;;;;;;;25.12;35.01;99260.17;106164;1278;22565;-85
2022/07/18 10:34:12;;;;;;;5.60;1.50;;;;;;;25.23;35.23;99256.90;106407;1277;138372;-83
2022/07/18 10:37:00;;;;;;;3.10;1.40;;;;;;;25.49;35.19;99257.90;106182;1278;22652;-85
2022/07/18 10:39:40;;;;;;;5.10;1.70;;;;;;;25.76;34.67;99259.59;106606;1277;137684;-86
2022/07/18 10:42:24;;;;;;;4.80;1.60;;;;;;;25.93;33.55;99254.27;106210;1277;24209;-86
2022/07/18 10:44:52;;;;;;;3.90;1.50;;;;;;;26.04;34.45;99248.92;106560;1277;137768;-89
2022/07/18 10:47:36;;;;;;;3.20;1.50;;;;;;;26.18;34.05;99249.58;106585;1277;22662;-87
2022/07/18 10:50:06;;;;;;;3.20;1.40;;;;;;;26.23;33.70;99250.42;106516;1277;25254;-88
2022/07/18 10:52:38;;;;;;;3.00;1.30;;;;;;;26.28;33.35;99245.80;106298;1277;137415;-85
2022/07/18 10:55:06;;;;;;;6.80;2.00;;;;;;;26.38;33.65;99242.62;107062;1277;24224;-89
2022/07/18 10:57:50;;;;;;;6.40;1.70;;;;;;;26.51;33.23;99248.58;106805;1277;137944;-90
2022/07/18 11:00:25;;;;;;;5.20;1.30;;;;;;;26.61;33.31;99240.77;106098;1277;22704;-86
2022/07/18 11:03:11;;;;;;;4.70;1.30;;;;;;;26.77;32.49;99238.14;106822;1277;137809;-83
2022/07/18 11:05:54;;;;;;;3.90;1.80;;;;;;;26.93;32.30;99239.30;106417;1277;23372;-85
2022/07/18 11:08:36;;;;;;;6.60;2.10;;;;;;;27.04;32.16;99231.29;106196;1277;137827;-84
2022/07/18 11:11:05;;;;;;;5.80;1.90;;;;;;;27.10;32.90;99235.27;106822;1277;22550;-84
2022/07/18 11:13:38;;;;;;;3.80;1.50;;;;;;;27.18;32.37;99230.08;106707;1277;25295;-88
2022/07/18 11:16:25;;;;;;;2.40;1.60;;;;;;;27.21;31.21;99234.45;106438;1277;137933;-89
2022/07/18 11:19:00;;;;;;;3.10;1.60;;;;;;;27.14;31.28;99226.64;106563;1277;22563;-86
2022/07/18 11:21:30;;;;;;;6.10;1.60;;;;;;;26.99;32.28;99228.92;106145;1277;137595;-86
2022/07/18 11:24:06;;;;;;;6.60;1.90;;;;;;;26.94;32.00;99225.48;106321;1278;22562;-84
2022/07/18 11:26:42;;;;;;;5.50;1.70;;;;;;;27.04;32.76;99220.58;106633;1277;138375;-86
2022/07/18 11:29:16;;;;;;;3.90;1.70;;;;;;;27.05;32.24;99222.86;106547;1277;22540;-86
2022/07/18 11:31:49;;;;;;;4.20;1.60;;;;;;;27.04;31.70;99216.98;106629;1277;24294;-86
2022/07/18 11:34:20;;;;;;;4.30;1.70;;;;;;;27.17;32.45;99215.29;106579;1276;137583;-85
2022/07/18 11:37:03;;;;;;;3.10;1.50;;;;;;;27.31;32.85;99212.81;106935;1277;30239;-85
2022/07/18 11:39:36;;;;;;;3.90;1.80;;;;;;;27.49;32.69;99212.73;106131;1277;137976;-87
2022/07/18 11:42:04;;;;;;;4.30;1.80;;;;;;;27.50;31.69;99216.13;106424;1277;23289;-88
2022/07/18 11:44:40;;;;;;;8.40;1.70;;;;;;;27.42;32.18;99211.17;106188;1278;137972;-91